createdAt,value
2022-09-11T00:01:16.255Z,52.30
2022-09-11T00:03:44.863Z,52.30
2022-09-11T00:06:14.709Z,52.40
2022-09-11T00:08:43.056Z,52.30
2022-09-11T00:11:19.812Z,52.30
2022-09-11T00:13:50.073Z,52.30
2022-09-11T00:16:31.350Z,52.30
2022-09-11T00:19:00.435Z,52.30
2022-09-11T00:21:28.146Z,52.30
2022-09-11T00:23:55.740Z,52.30
2022-09-11T00:26:22.992Z,52.30
2022-09-11T00:28:50.809Z,52.30
2022-09-11T00:31:22.085Z,52.30
2022-09-11T00:33:49.604Z,52.30
2022-09-11T00:36:19.389Z,52.30
2022-09-11T00:38:46.503Z,52.30
2022-09-11T00:41:17.161Z,52.30
2022-09-11T00:44:00.721Z,52.30
2022-09-11T00:46:34.943Z,52.30
2022-09-11T00:49:10.792Z,52.30
2022-09-11T00:51:38.651Z,52.40
2022-09-11T00:54:06.296Z,52.30
2022-09-11T00:56:37.457Z,52.30
2022-09-11T00:59:05.789Z,52.30
2022-09-11T01:01:33.469Z,52.30
2022-09-11T01:04:04.293Z,52.30
2022-09-11T01:06:32.725Z,52.30
2022-09-11T01:09:00.342Z,52.30
2022-09-11T01:11:39.794Z,52.30
2022-09-11T01:14:36.628Z,52.30
2022-09-11T01:17:25.636Z,52.30
2022-09-11T01:20:24.394Z,52.30
2022-09-11T01:23:24.557Z,52.30
2022-09-11T01:26:15.743Z,52.30
2022-09-11T01:28:52.934Z,52.30
2022-09-11T01:31:25.559Z,52.30
2022-09-11T01:34:06.970Z,52.30
2022-09-11T01:36:44.959Z,52.30
2022-09-11T01:39:14.282Z,52.30
2022-09-11T01:42:03.627Z,52.30
2022-09-11T01:44:37.220Z,52.90
2022-09-11T01:47:10.366Z,52.30
2022-09-11T01:49:49.355Z,52.30
2022-09-11T01:52:22.476Z,52.30
2022-09-11T01:54:56.283Z,52.30
2022-09-11T01:57:36.550Z,52.30
2022-09-11T02:00:06.838Z,52.40
2022-09-11T02:02:36.386Z,52.40
2022-09-11T02:05:16.699Z,52.40
2022-09-11T02:07:52.451Z,52.40
2022-09-11T02:10:39.763Z,52.40
2022-09-11T02:13:30.718Z,52.40
2022-09-11T02:16:07.281Z,52.40
2022-09-11T02:19:09.337Z,52.40
2022-09-11T02:21:37.485Z,52.40
2022-09-11T02:24:05.567Z,52.40
2022-09-11T02:26:36.598Z,52.40
2022-09-11T02:29:03.698Z,52.40
2022-09-11T02:31:31.412Z,52.40
2022-09-11T02:33:58.487Z,52.40
2022-09-11T02:37:00.462Z,52.30
2022-09-11T02:40:07.342Z,52.30
2022-09-11T02:42:58.918Z,52.90
2022-09-11T02:45:58.641Z,52.40
2022-09-11T02:48:56.318Z,52.30
2022-09-11T02:52:03.192Z,52.40
2022-09-11T02:54:53.009Z,52.40
2022-09-11T02:57:32.988Z,52.40
2022-09-11T03:00:04.336Z,52.40
2022-09-11T03:02:34.087Z,52.50
2022-09-11T03:05:01.249Z,52.40
2022-09-11T03:07:28.346Z,52.40
2022-09-11T03:09:55.410Z,52.40
2022-09-11T03:12:22.600Z,52.40
2022-09-11T03:14:49.690Z,52.40
2022-09-11T03:17:17.274Z,52.40
2022-09-11T03:19:44.388Z,52.40
2022-09-11T03:22:11.688Z,52.40
2022-09-11T03:24:39.862Z,52.40
2022-09-11T03:27:07.120Z,52.40
2022-09-11T03:29:34.183Z,52.40
2022-09-11T03:32:01.331Z,52.40
2022-09-11T03:34:28.622Z,52.40
2022-09-11T03:36:55.659Z,52.40
2022-09-11T03:39:22.707Z,52.40
2022-09-11T03:41:49.785Z,52.40
2022-09-11T03:44:17.855Z,52.40
2022-09-11T03:46:44.890Z,52.40
2022-09-11T03:49:11.942Z,52.40
2022-09-11T03:51:38.985Z,52.40
2022-09-11T03:54:06.129Z,52.40
2022-09-11T03:56:33.204Z,52.40
2022-09-11T03:59:00.751Z,52.40
2022-09-11T04:01:29.434Z,52.40
2022-09-11T04:03:57.285Z,52.40
2022-09-11T04:06:24.314Z,52.40
2022-09-11T04:08:51.366Z,52.40
2022-09-11T04:11:18.471Z,52.40
2022-09-11T04:13:45.830Z,52.50
2022-09-11T04:16:15.321Z,52.40
2022-09-11T04:18:43.938Z,52.40
2022-09-11T04:21:14.517Z,52.40
2022-09-11T04:23:42.024Z,52.40
2022-09-11T04:26:21.337Z,52.40
2022-09-11T04:28:48.752Z,52.40
2022-09-11T04:31:17.989Z,52.30
2022-09-11T04:33:45.875Z,52.30
2022-09-11T04:36:17.925Z,52.30
2022-09-11T04:38:45.983Z,52.30
2022-09-11T04:41:13.975Z,52.30
2022-09-11T04:43:42.439Z,52.30
2022-09-11T04:46:17.628Z,52.20
2022-09-11T04:48:50.235Z,52.20
2022-09-11T04:51:28.959Z,52.20
2022-09-11T04:53:57.690Z,52.20
2022-09-11T04:56:29.381Z,52.20
2022-09-11T04:58:59.891Z,52.20
2022-09-11T05:01:29.724Z,52.10
2022-09-11T05:03:56.977Z,52.10
2022-09-11T05:06:24.334Z,52.10
2022-09-11T05:08:51.391Z,52.10
2022-09-11T05:11:21.050Z,52.10
2022-09-11T05:13:48.787Z,52.00
2022-09-11T05:16:18.122Z,52.00
2022-09-11T05:18:52.076Z,52.00
2022-09-11T05:21:21.186Z,52.20
2022-09-11T05:23:50.116Z,52.50
2022-09-11T05:26:22.967Z,52.90
2022-09-11T05:29:05.301Z,52.60
2022-09-11T05:31:32.413Z,52.00
2022-09-11T05:34:00.746Z,51.40
2022-09-11T05:36:28.569Z,51.20
2022-09-11T05:38:55.850Z,50.70
2022-09-11T05:41:23.211Z,50.80
2022-09-11T05:43:51.629Z,51.00
2022-09-11T05:46:20.091Z,51.40
2022-09-11T05:48:48.044Z,52.20
2022-09-11T05:51:19.192Z,53.00
2022-09-11T05:53:46.478Z,52.90
2022-09-11T05:56:16.059Z,53.50
2022-09-11T05:58:48.175Z,54.40
2022-09-11T06:01:18.182Z,54.10
2022-09-11T06:03:48.637Z,53.70
2022-09-11T06:06:17.741Z,55.00
2022-09-11T06:08:45.540Z,55.40
2022-09-11T06:11:15.306Z,54.60
2022-09-11T06:13:44.839Z,54.90
2022-09-11T06:16:18.096Z,56.20
2022-09-11T06:18:49.546Z,55.80
2022-09-11T06:21:20.383Z,55.40
2022-09-11T06:23:49.099Z,56.40
2022-09-11T06:26:18.684Z,56.30
2022-09-11T06:28:45.772Z,55.40
2022-09-11T06:31:18.706Z,56.10
2022-09-11T06:33:47.122Z,56.50
2022-09-11T06:36:17.235Z,55.80
2022-09-11T06:38:44.910Z,56.20
2022-09-11T06:41:15.517Z,56.90
2022-09-11T06:43:43.027Z,56.20
2022-09-11T06:46:14.758Z,55.60
2022-09-11T06:48:43.911Z,57.30
2022-09-11T06:51:14.442Z,57.30
2022-09-11T06:53:41.815Z,55.90
2022-09-11T06:56:15.307Z,57.00
2022-09-11T06:58:43.222Z,57.50
2022-09-11T07:01:13.076Z,56.40
2022-09-11T07:03:44.898Z,56.50
2022-09-11T07:06:13.220Z,57.40
2022-09-11T07:08:40.430Z,56.80
2022-09-11T07:11:08.996Z,56.00
2022-09-11T07:13:38.328Z,57.30
2022-09-11T07:16:08.569Z,57.30
2022-09-11T07:18:37.969Z,56.10
2022-09-11T07:21:07.441Z,57.00
2022-09-11T07:23:35.432Z,57.80
2022-09-11T07:26:07.986Z,56.00
2022-09-11T07:28:35.706Z,56.50
2022-09-11T07:31:10.707Z,57.80
2022-09-11T07:33:39.823Z,57.30
2022-09-11T07:36:12.240Z,56.60
2022-09-11T07:38:41.382Z,57.60
2022-09-11T07:41:09.226Z,57.80
2022-09-11T07:43:37.445Z,56.90
2022-09-11T07:46:06.063Z,57.50
2022-09-11T07:48:33.468Z,58.50
2022-09-11T07:51:03.669Z,57.00
2022-09-11T07:53:35.644Z,57.50
2022-09-11T07:56:04.665Z,58.70
2022-09-11T07:58:38.267Z,58.60
2022-09-11T08:01:07.015Z,57.60
2022-09-11T08:03:35.671Z,58.80
2022-09-11T08:06:05.539Z,58.90
2022-09-11T08:08:32.735Z,57.80
2022-09-11T08:11:06.714Z,58.50
2022-09-11T08:13:34.866Z,59.10
2022-09-11T08:16:02.349Z,58.20
2022-09-11T08:18:30.423Z,57.50
2022-09-11T08:21:13.041Z,59.10
2022-09-11T08:23:42.884Z,58.40
2022-09-11T08:26:12.904Z,58.00
2022-09-11T08:28:43.243Z,58.80
2022-09-11T08:31:11.386Z,58.90
2022-09-11T08:33:38.840Z,57.60
2022-09-11T08:36:09.387Z,58.00
2022-09-11T08:38:38.064Z,59.20
2022-09-11T08:41:47.549Z,58.00
2022-09-11T08:44:26.839Z,57.50
2022-09-11T08:46:59.613Z,59.20
2022-09-11T08:49:32.240Z,58.30
2022-09-11T08:52:02.742Z,57.70
2022-09-11T08:54:36.663Z,58.80
2022-09-11T08:57:28.540Z,57.90
2022-09-11T09:00:20.066Z,57.20
2022-09-11T09:03:04.152Z,58.20
2022-09-11T09:05:55.625Z,58.20
2022-09-11T09:08:41.413Z,57.70
2022-09-11T09:11:36.980Z,58.80
2022-09-11T09:14:25.356Z,58.30
2022-09-11T09:17:22.235Z,58.00
2022-09-11T09:20:16.735Z,59.00
2022-09-11T09:23:23.461Z,58.10
2022-09-11T09:26:00.252Z,58.00
2022-09-11T09:28:48.841Z,58.40
2022-09-11T09:31:21.065Z,57.90
2022-09-11T09:33:57.347Z,58.10
2022-09-11T09:36:34.874Z,57.80
2022-09-11T09:39:03.175Z,58.20
2022-09-11T09:41:59.205Z,58.90
2022-09-11T09:45:06.040Z,58.50
2022-09-11T09:47:33.822Z,58.30
2022-09-11T09:50:00.966Z,58.70
2022-09-11T09:52:34.240Z,58.40
2022-09-11T09:55:13.478Z,58.50
2022-09-11T09:57:40.551Z,58.70
2022-09-11T10:00:20.092Z,59.30
2022-09-11T10:02:49.596Z,59.50
2022-09-11T10:05:20.949Z,59.30
2022-09-11T10:07:54.191Z,58.70
2022-09-11T10:10:24.151Z,58.50
2022-09-11T10:12:59.792Z,58.60
2022-09-11T10:15:42.398Z,58.30
2022-09-11T10:18:38.158Z,58.10
2022-09-11T10:21:23.357Z,58.10
2022-09-11T10:24:02.394Z,58.10
2022-09-11T10:26:46.112Z,57.90
2022-09-11T10:29:21.090Z,58.10
2022-09-11T10:31:54.961Z,57.90
2022-09-11T10:34:25.640Z,57.90
2022-09-11T10:37:13.913Z,57.90
2022-09-11T10:39:43.762Z,57.90
2022-09-11T10:42:16.878Z,58.30
2022-09-11T10:44:48.009Z,58.00
2022-09-11T10:47:32.769Z,58.30
2022-09-11T10:50:21.659Z,57.90
2022-09-11T10:53:23.252Z,57.70
2022-09-11T10:55:58.261Z,57.60
2022-09-11T10:58:32.883Z,57.60
2022-09-11T11:00:59.989Z,58.00
2022-09-11T11:03:28.514Z,57.70
2022-09-11T11:06:33.006Z,57.30
2022-09-11T11:09:31.206Z,57.50
2022-09-11T11:12:38.940Z,57.50
2022-09-11T11:15:35.755Z,56.60
2022-09-11T11:18:28.926Z,56.60
2022-09-11T11:21:25.519Z,56.60
2022-09-11T11:24:23.972Z,56.50
2022-09-11T11:27:27.767Z,56.60
2022-09-11T11:30:08.405Z,56.70
2022-09-11T11:33:05.816Z,57.20
2022-09-11T11:36:01.924Z,57.10
2022-09-11T11:39:00.530Z,57.20
2022-09-11T11:41:44.692Z,57.30
2022-09-11T11:44:17.200Z,57.20
2022-09-11T11:46:49.411Z,57.40
2022-09-11T11:49:34.191Z,57.70
2022-09-11T11:52:13.368Z,57.60
2022-09-11T11:54:58.716Z,57.30
2022-09-11T11:57:29.460Z,57.40
2022-09-11T12:00:01.627Z,57.30
2022-09-11T12:02:35.764Z,57.00
2022-09-11T12:05:11.055Z,57.30
2022-09-11T12:07:41.404Z,57.30
2022-09-11T12:10:22.401Z,56.90
2022-09-11T12:12:55.941Z,56.80
2022-09-11T12:15:25.618Z,56.70
2022-09-11T12:18:02.957Z,56.80
2022-09-11T12:20:41.717Z,56.70
2022-09-11T12:23:33.531Z,56.50
2022-09-11T12:26:22.391Z,56.30
2022-09-11T12:29:10.001Z,56.30
2022-09-11T12:32:16.802Z,56.40
2022-09-11T12:35:13.467Z,56.40
2022-09-11T12:37:41.935Z,56.70
2022-09-11T12:40:23.369Z,56.80
2022-09-11T12:42:59.799Z,56.70
2022-09-11T12:45:36.169Z,56.50
2022-09-11T12:48:06.560Z,56.50
2022-09-11T12:50:35.150Z,56.70
2022-09-11T12:53:04.351Z,56.60
2022-09-11T12:55:43.585Z,56.30
2022-09-11T12:58:36.071Z,56.30
2022-09-11T13:01:13.858Z,56.10
2022-09-11T13:04:19.623Z,56.10
2022-09-11T13:06:50.476Z,56.10
2022-09-11T13:09:33.371Z,55.90
2022-09-11T13:12:40.303Z,55.80
2022-09-11T13:15:38.554Z,55.70
2022-09-11T13:18:33.105Z,55.50
2022-09-11T13:21:04.764Z,55.70
2022-09-11T13:23:32.903Z,55.70
2022-09-11T13:26:01.193Z,55.70
2022-09-11T13:28:31.831Z,55.70
2022-09-11T13:31:02.160Z,55.70
2022-09-11T13:33:31.227Z,55.40
2022-09-11T13:36:02.704Z,55.80
2022-09-11T13:38:35.163Z,55.60
2022-09-11T13:41:08.940Z,55.60
2022-09-11T13:43:42.585Z,55.60
2022-09-11T13:46:18.226Z,55.60
2022-09-11T13:48:49.199Z,55.70
2022-09-11T13:51:31.799Z,55.70
2022-09-11T13:54:13.310Z,55.70
2022-09-11T13:56:51.493Z,55.60
2022-09-11T13:59:58.253Z,55.70
2022-09-11T14:02:51.120Z,55.60
2022-09-11T14:05:26.369Z,55.80
2022-09-11T14:08:22.756Z,55.70
2022-09-11T14:10:58.339Z,55.80
2022-09-11T14:13:49.040Z,55.90
2022-09-11T14:16:35.090Z,56.00
2022-09-11T14:19:17.280Z,56.00
2022-09-11T14:21:47.373Z,56.00
2022-09-11T14:24:36.366Z,55.90
2022-09-11T14:27:24.413Z,55.90
2022-09-11T14:29:55.720Z,55.90
2022-09-11T14:32:32.698Z,55.90
2022-09-11T14:35:01.328Z,55.90
2022-09-11T14:37:31.337Z,56.10
2022-09-11T14:40:03.193Z,55.90
2022-09-11T14:42:33.851Z,56.00
2022-09-11T14:45:09.164Z,55.90
2022-09-11T14:47:36.702Z,55.90
2022-09-11T14:50:05.680Z,56.10
2022-09-11T14:52:33.156Z,55.90
2022-09-11T14:55:00.760Z,55.90
2022-09-11T14:57:33.330Z,56.10
2022-09-11T15:00:00.496Z,56.90
2022-09-11T15:02:29.569Z,57.40
2022-09-11T15:04:58.517Z,58.00
2022-09-11T15:07:27.602Z,58.40
2022-09-11T15:09:55.382Z,58.80
2022-09-11T15:12:22.942Z,59.20
2022-09-11T15:14:56.999Z,59.50
2022-09-11T15:17:25.432Z,59.80
2022-09-11T15:19:53.574Z,60.00
2022-09-11T15:22:21.008Z,60.10
2022-09-11T15:24:48.983Z,60.30
2022-09-11T15:27:16.221Z,60.40
2022-09-11T15:29:43.258Z,60.50
2022-09-11T15:32:10.692Z,60.60
2022-09-11T15:34:42.153Z,60.70
2022-09-11T15:37:09.301Z,60.70
2022-09-11T15:39:36.420Z,60.70
2022-09-11T15:42:04.137Z,60.80
2022-09-11T15:44:31.180Z,60.90
2022-09-11T15:46:59.293Z,61.00
2022-09-11T15:49:29.415Z,61.10
2022-09-11T15:51:58.099Z,61.30
2022-09-11T15:54:26.339Z,61.30
2022-09-11T15:56:53.940Z,61.40
2022-09-11T15:59:21.165Z,61.40
2022-09-11T16:01:48.300Z,61.40
2022-09-11T16:04:20.328Z,61.40
2022-09-11T16:06:48.815Z,61.40
2022-09-11T16:09:19.498Z,62.10
2022-09-11T16:11:48.127Z,63.10
2022-09-11T16:14:24.363Z,63.10
2022-09-11T16:16:52.477Z,63.10
2022-09-11T16:19:22.150Z,62.90
2022-09-11T16:21:50.269Z,62.90
2022-09-11T16:24:17.452Z,62.70
2022-09-11T16:26:44.687Z,62.40
2022-09-11T16:29:14.751Z,62.20
2022-09-11T16:31:42.759Z,62.10
2022-09-11T16:34:11.042Z,61.80
2022-09-11T16:36:42.770Z,61.70
2022-09-11T16:39:12.077Z,61.30
2022-09-11T16:41:39.558Z,61.30
2022-09-11T16:44:09.086Z,61.00
2022-09-11T16:46:37.318Z,61.00
2022-09-11T16:49:06.423Z,60.90
2022-09-11T16:51:34.391Z,60.70
2022-09-11T16:54:04.317Z,60.50
2022-09-11T16:56:31.446Z,60.20
2022-09-11T16:58:58.896Z,60.00
2022-09-11T17:01:27.447Z,59.90
2022-09-11T17:03:57.356Z,59.60
2022-09-11T17:06:30.407Z,59.40
2022-09-11T17:09:00.041Z,59.10
2022-09-11T17:11:28.343Z,58.90
2022-09-11T17:13:55.684Z,58.90
2022-09-11T17:16:26.546Z,58.50
2022-09-11T17:18:58.141Z,58.00
2022-09-11T17:21:27.054Z,57.90
2022-09-11T17:23:56.342Z,57.60
2022-09-11T17:26:24.039Z,57.40
2022-09-11T17:28:51.971Z,57.10
2022-09-11T17:31:19.670Z,56.70
2022-09-11T17:33:48.211Z,56.60
2022-09-11T17:36:18.354Z,56.40
2022-09-11T17:38:46.729Z,56.00
2022-09-11T17:41:14.606Z,55.90
2022-09-11T17:43:42.298Z,55.60
2022-09-11T17:46:12.458Z,55.60
2022-09-11T17:48:40.014Z,55.30
2022-09-11T17:51:11.245Z,55.10
2022-09-11T17:53:41.605Z,55.00
2022-09-11T17:56:12.389Z,54.80
2022-09-11T17:58:40.302Z,54.70
2022-09-11T18:01:08.238Z,54.60
2022-09-11T18:03:36.392Z,54.50
2022-09-11T18:06:05.507Z,54.40
2022-09-11T18:08:33.428Z,54.30
2022-09-11T18:11:02.165Z,54.20
2022-09-11T18:13:34.757Z,54.00
2022-09-11T18:16:03.661Z,53.80
2022-09-11T18:18:31.049Z,53.70
2022-09-11T18:21:09.000Z,53.60
2022-09-11T18:23:42.630Z,53.40
2022-09-11T18:26:19.847Z,53.30
2022-09-11T18:28:49.252Z,53.10
2022-09-11T18:31:17.025Z,53.00
2022-09-11T18:33:44.391Z,52.90
2022-09-11T18:36:13.553Z,53.30
2022-09-11T18:38:40.925Z,52.70
2022-09-11T18:41:08.093Z,52.60
2022-09-11T18:43:35.199Z,52.60
2022-09-11T18:46:03.799Z,52.50
2022-09-11T18:48:30.929Z,52.50
2022-09-11T18:51:00.041Z,52.40
2022-09-11T18:53:27.336Z,52.30
2022-09-11T18:56:02.331Z,52.30
2022-09-11T18:58:33.448Z,52.20
2022-09-11T19:01:05.475Z,52.20
2022-09-11T19:03:32.789Z,52.10
2022-09-11T19:06:09.119Z,52.10
2022-09-11T19:08:37.688Z,52.10
2022-09-11T19:11:10.124Z,52.00
2022-09-11T19:13:38.268Z,51.90
2022-09-11T19:16:06.068Z,51.90
2022-09-11T19:18:34.729Z,51.80
2022-09-11T19:21:14.282Z,51.80
2022-09-11T19:23:43.910Z,51.70
2022-09-11T19:26:16.938Z,51.70
2022-09-11T19:28:45.945Z,51.60
2022-09-11T19:31:15.055Z,51.60
2022-09-11T19:33:42.755Z,51.50
2022-09-11T19:36:17.293Z,51.50
2022-09-11T19:38:46.246Z,51.50
2022-09-11T19:41:22.044Z,51.50
2022-09-11T19:43:50.853Z,51.50
2022-09-11T19:46:24.330Z,51.40
2022-09-11T19:48:53.449Z,51.40
2022-09-11T19:51:26.270Z,51.30
2022-09-11T19:54:00.233Z,51.40
2022-09-11T19:56:28.840Z,51.30
2022-09-11T19:58:56.223Z,51.30
2022-09-11T20:01:25.044Z,51.20
2022-09-11T20:03:54.142Z,51.20
2022-09-11T20:06:23.613Z,51.20
2022-09-11T20:09:02.921Z,51.20
2022-09-11T20:11:39.122Z,51.20
2022-09-11T20:14:06.470Z,51.20
2022-09-11T20:16:33.837Z,51.10
2022-09-11T20:19:06.739Z,51.20
2022-09-11T20:21:35.538Z,51.20
2022-09-11T20:24:05.337Z,51.20
2022-09-11T20:26:32.848Z,51.10
2022-09-11T20:29:07.006Z,51.20
2022-09-11T20:31:46.436Z,51.20
2022-09-11T20:34:14.203Z,51.10
2022-09-11T20:36:41.290Z,51.10
2022-09-11T20:39:10.851Z,51.10
2022-09-11T20:41:37.978Z,51.10
2022-09-11T20:44:05.174Z,51.10
2022-09-11T20:46:32.539Z,51.20
2022-09-11T20:49:00.936Z,51.10
2022-09-11T20:51:28.341Z,51.10
2022-09-11T20:53:56.189Z,51.10
2022-09-11T20:56:24.123Z,51.00
2022-09-11T20:58:51.974Z,51.00
2022-09-11T21:01:21.515Z,51.10
2022-09-11T21:03:54.029Z,51.00
2022-09-11T21:06:25.921Z,51.00
2022-09-11T21:08:55.731Z,51.00
2022-09-11T21:11:24.013Z,51.00
2022-09-11T21:13:51.477Z,51.00
2022-09-11T21:16:19.997Z,51.00
2022-09-11T21:18:52.774Z,50.90
2022-09-11T21:21:20.744Z,51.00
2022-09-11T21:23:48.354Z,50.90
2022-09-11T21:26:17.079Z,50.90
2022-09-11T21:28:44.578Z,50.90
2022-09-11T21:31:12.092Z,50.90
2022-09-11T21:33:39.453Z,50.90
2022-09-11T21:36:07.440Z,50.90
2022-09-11T21:38:34.756Z,50.90
2022-09-11T21:41:04.334Z,50.90
2022-09-11T21:43:31.928Z,50.90
2022-09-11T21:45:59.009Z,50.90
2022-09-11T21:48:26.067Z,50.90
2022-09-11T21:50:53.151Z,50.90
2022-09-11T21:53:21.302Z,50.90
2022-09-11T21:55:48.802Z,50.90
2022-09-11T21:58:21.452Z,50.90
2022-09-11T22:00:49.258Z,50.90
2022-09-11T22:03:18.650Z,50.90
2022-09-11T22:05:48.844Z,50.90
2022-09-11T22:08:17.098Z,50.90
2022-09-11T22:10:47.135Z,50.90
2022-09-11T22:13:14.835Z,50.90
2022-09-11T22:15:47.513Z,50.90
2022-09-11T22:18:15.999Z,50.90
2022-09-11T22:20:43.754Z,50.90
2022-09-11T22:23:16.603Z,50.90
2022-09-11T22:25:45.214Z,50.90
2022-09-11T22:28:12.879Z,50.90
2022-09-11T22:30:44.077Z,50.90
2022-09-11T22:33:11.341Z,50.90
2022-09-11T22:35:38.575Z,50.90
2022-09-11T22:38:05.656Z,50.90
2022-09-11T22:40:32.709Z,50.90
2022-09-11T22:43:00.324Z,50.90
2022-09-11T22:45:27.452Z,50.90
2022-09-11T22:47:54.553Z,50.90
2022-09-11T22:50:21.607Z,50.90
2022-09-11T22:52:49.207Z,50.90
2022-09-11T22:55:16.473Z,50.90
2022-09-11T22:57:43.552Z,50.90
2022-09-11T23:00:12.970Z,50.90
2022-09-11T23:02:40.030Z,50.90
2022-09-11T23:05:27.702Z,50.90
2022-09-11T23:07:55.141Z,50.90
2022-09-11T23:10:23.840Z,50.90
2022-09-11T23:12:54.857Z,50.90
2022-09-11T23:15:22.514Z,50.90
2022-09-11T23:17:49.622Z,50.90
2022-09-11T23:20:16.818Z,50.90
2022-09-11T23:22:43.851Z,50.90
2022-09-11T23:25:11.372Z,50.90
2022-09-11T23:27:38.442Z,50.90
2022-09-11T23:30:06.184Z,50.90
2022-09-11T23:32:33.209Z,50.90
2022-09-11T23:35:00.453Z,50.90
2022-09-11T23:37:27.594Z,50.80
2022-09-11T23:39:54.687Z,50.90
2022-09-11T23:42:21.977Z,50.90
2022-09-11T23:44:49.059Z,50.90
2022-09-11T23:47:16.335Z,50.90
2022-09-11T23:49:43.860Z,50.90
2022-09-11T23:52:10.943Z,50.90
2022-09-11T23:54:38.012Z,50.90
2022-09-11T23:57:05.910Z,50.90
2022-09-11T23:59:36.255Z,50.90
